createdAt,value
2019-02-19T00:01:00.990Z,4.27
2019-02-19T00:03:28.657Z,4.19
2019-02-19T00:05:56.332Z,4.17
2019-02-19T00:08:23.997Z,4.16
2019-02-19T00:10:51.650Z,4.11
2019-02-19T00:13:19.314Z,4.02
2019-02-19T00:15:46.969Z,3.89
2019-02-19T00:18:14.629Z,4.21
2019-02-19T00:20:42.298Z,4.04
2019-02-19T00:23:09.965Z,3.90
2019-02-19T00:25:37.621Z,4.07
2019-02-19T00:28:05.289Z,3.99
2019-02-19T00:30:32.942Z,3.80
2019-02-19T00:33:00.600Z,3.90
2019-02-19T00:35:28.258Z,3.66
2019-02-19T00:37:55.916Z,3.72
2019-02-19T00:40:23.574Z,3.62
2019-02-19T00:42:51.229Z,3.52
2019-02-19T00:45:18.893Z,3.44
2019-02-19T00:47:46.553Z,3.49
2019-02-19T00:50:14.224Z,3.39
2019-02-19T00:52:41.878Z,3.47
2019-02-19T00:55:09.540Z,3.34
2019-02-19T00:57:37.200Z,3.36
2019-02-19T01:00:04.865Z,3.40
2019-02-19T01:02:32.524Z,3.26
2019-02-19T01:05:00.275Z,3.29
2019-02-19T01:07:28.126Z,3.32
2019-02-19T01:09:55.781Z,3.31
2019-02-19T01:12:23.458Z,3.36
2019-02-19T01:14:51.131Z,3.50
2019-02-19T01:17:18.789Z,3.38
2019-02-19T01:19:46.458Z,3.24
2019-02-19T01:22:14.110Z,3.19
2019-02-19T01:24:41.770Z,3.22
2019-02-19T01:27:09.453Z,3.31
2019-02-19T01:29:37.125Z,3.54
2019-02-19T01:32:04.788Z,3.60
2019-02-19T01:34:32.475Z,3.44
2019-02-19T01:37:00.140Z,3.31
2019-02-19T01:39:27.797Z,3.21
2019-02-19T01:41:55.460Z,3.21
2019-02-19T01:44:23.121Z,3.24
2019-02-19T01:46:50.782Z,3.23
2019-02-19T01:49:18.445Z,3.20
2019-02-19T01:51:46.118Z,3.28
2019-02-19T01:54:13.849Z,3.46
2019-02-19T01:56:41.503Z,3.24
2019-02-19T01:59:09.168Z,3.36
2019-02-19T02:01:36.813Z,3.32
2019-02-19T02:04:04.491Z,3.07
2019-02-19T02:06:32.162Z,3.22
2019-02-19T02:08:59.804Z,3.00
2019-02-19T02:11:27.474Z,3.12
2019-02-19T02:13:55.135Z,3.05
2019-02-19T02:16:22.797Z,3.16
2019-02-19T02:18:50.457Z,3.12
2019-02-19T02:21:18.136Z,3.09
2019-02-19T02:23:45.953Z,3.06
2019-02-19T02:26:13.610Z,3.00
2019-02-19T02:28:41.275Z,2.93
2019-02-19T02:31:08.941Z,2.86
2019-02-19T02:33:36.600Z,2.84
2019-02-19T02:36:04.259Z,2.89
2019-02-19T02:38:31.934Z,3.01
2019-02-19T02:40:59.584Z,3.01
2019-02-19T02:43:27.251Z,2.94
2019-02-19T02:45:54.911Z,2.94
2019-02-19T02:48:22.576Z,2.94
2019-02-19T02:50:50.234Z,2.90
2019-02-19T02:53:17.889Z,2.84
2019-02-19T02:55:45.549Z,2.83
2019-02-19T02:58:13.210Z,2.93
2019-02-19T03:00:40.868Z,2.98
2019-02-19T03:03:08.536Z,2.83
2019-02-19T03:05:38.721Z,3.06
2019-02-19T03:08:06.974Z,3.00
2019-02-19T03:10:34.638Z,2.91
2019-02-19T03:13:02.306Z,3.10
2019-02-19T03:15:29.972Z,2.98
2019-02-19T03:17:57.635Z,2.89
2019-02-19T03:20:25.288Z,2.79
2019-02-19T03:22:52.943Z,2.85
2019-02-19T03:25:20.615Z,2.99
2019-02-19T03:27:48.265Z,2.87
2019-02-19T03:30:15.945Z,2.95
2019-02-19T03:32:43.671Z,2.80
2019-02-19T03:35:11.330Z,2.96
2019-02-19T03:37:39.032Z,2.95
2019-02-19T03:40:07.659Z,2.83
2019-02-19T03:42:35.688Z,2.82
2019-02-19T03:45:03.346Z,2.87
2019-02-19T03:47:31.040Z,2.96
2019-02-19T03:49:58.744Z,3.01
2019-02-19T03:52:26.398Z,3.08
2019-02-19T03:54:54.058Z,2.95
2019-02-19T03:57:21.717Z,2.79
2019-02-19T03:59:49.372Z,2.78
2019-02-19T04:02:17.039Z,2.65
2019-02-19T04:04:44.701Z,2.73
2019-02-19T04:07:12.353Z,2.84
2019-02-19T04:09:40.035Z,2.70
2019-02-19T04:12:07.682Z,2.71
2019-02-19T04:14:35.354Z,2.69
2019-02-19T04:17:03.017Z,2.74
2019-02-19T04:19:30.671Z,2.92
2019-02-19T04:21:58.338Z,2.80
2019-02-19T04:24:25.998Z,3.03
2019-02-19T04:26:53.654Z,3.00
2019-02-19T04:29:21.326Z,2.90
2019-02-19T04:31:48.977Z,2.93
2019-02-19T04:34:16.649Z,3.04
2019-02-19T04:36:44.304Z,2.78
2019-02-19T04:39:11.978Z,2.73
2019-02-19T04:41:39.652Z,2.87
2019-02-19T04:44:07.398Z,2.93
2019-02-19T04:46:35.055Z,2.74
2019-02-19T04:49:02.712Z,2.72
2019-02-19T04:51:30.382Z,2.85
2019-02-19T04:53:58.099Z,2.80
2019-02-19T04:56:25.766Z,2.81
2019-02-19T04:58:53.423Z,2.69
2019-02-19T05:01:21.087Z,2.60
2019-02-19T05:03:48.749Z,2.69
2019-02-19T05:06:16.417Z,2.73
2019-02-19T05:08:44.680Z,2.82
2019-02-19T05:11:12.519Z,2.80
2019-02-19T05:13:40.173Z,2.74
2019-02-19T05:16:07.842Z,2.73
2019-02-19T05:18:35.505Z,2.56
2019-02-19T05:21:03.181Z,2.51
2019-02-19T05:23:30.854Z,2.48
2019-02-19T05:25:58.514Z,2.30
2019-02-19T05:28:26.269Z,2.24
2019-02-19T05:30:53.926Z,2.29
2019-02-19T05:33:21.614Z,2.20
2019-02-19T05:35:49.339Z,2.24
2019-02-19T05:38:17.007Z,2.25
2019-02-19T05:40:44.682Z,2.28
2019-02-19T05:43:12.334Z,2.00
2019-02-19T05:45:40.007Z,2.09
2019-02-19T05:48:07.665Z,2.13
2019-02-19T05:50:35.341Z,2.03
2019-02-19T05:53:03.001Z,2.10
2019-02-19T05:55:30.674Z,2.10
2019-02-19T05:57:58.325Z,2.01
2019-02-19T06:00:25.982Z,1.97
2019-02-19T06:02:53.653Z,2.03
2019-02-19T06:05:21.416Z,2.00
2019-02-19T06:07:49.128Z,1.88
2019-02-19T06:10:16.797Z,1.99
2019-02-19T06:12:44.454Z,1.93
2019-02-19T06:15:12.135Z,2.00
2019-02-19T06:17:39.794Z,2.15
2019-02-19T06:20:07.451Z,2.08
2019-02-19T06:22:35.135Z,2.06
2019-02-19T06:25:02.796Z,2.14
2019-02-19T06:27:30.460Z,2.11
2019-02-19T06:29:58.138Z,2.23
2019-02-19T06:32:25.790Z,2.25
2019-02-19T06:34:53.457Z,2.43
2019-02-19T06:37:21.122Z,2.33
2019-02-19T06:39:48.782Z,2.31
2019-02-19T06:42:16.446Z,2.33
2019-02-19T06:44:44.129Z,2.40
2019-02-19T06:47:12.709Z,2.49
2019-02-19T06:49:40.425Z,2.43
2019-02-19T06:52:08.090Z,2.59
2019-02-19T06:54:35.753Z,2.67
2019-02-19T06:57:03.417Z,2.81
2019-02-19T06:59:31.093Z,2.92
2019-02-19T07:02:20.686Z,3.04
2019-02-19T07:04:52.245Z,3.12
2019-02-19T07:07:19.925Z,3.21
2019-02-19T07:09:47.660Z,3.41
2019-02-19T07:12:15.318Z,3.57
2019-02-19T07:14:42.977Z,3.57
2019-02-19T07:17:15.742Z,3.67
2019-02-19T07:19:40.009Z,3.81
2019-02-19T07:22:07.661Z,3.95
2019-02-19T07:24:35.327Z,4.08
2019-02-19T07:27:02.984Z,4.13
2019-02-19T07:29:30.648Z,4.17
2019-02-19T07:31:58.305Z,4.24
2019-02-19T07:34:25.973Z,4.28
2019-02-19T07:36:53.621Z,4.41
2019-02-19T07:39:21.286Z,4.41
2019-02-19T07:41:48.940Z,4.50
2019-02-19T07:44:16.606Z,4.63
2019-02-19T07:46:44.265Z,4.69
2019-02-19T07:49:11.925Z,4.86
2019-02-19T07:51:39.585Z,4.93
2019-02-19T07:54:07.254Z,5.09
2019-02-19T07:56:34.918Z,5.19
2019-02-19T07:59:02.582Z,5.29
2019-02-19T08:01:30.255Z,5.28
2019-02-19T08:03:57.909Z,5.35
2019-02-19T08:06:25.568Z,5.46
2019-02-19T08:08:53.242Z,5.62
2019-02-19T08:11:20.902Z,5.68
2019-02-19T08:13:48.573Z,5.84
2019-02-19T08:16:16.230Z,5.94
2019-02-19T08:18:43.905Z,6.18
2019-02-19T08:21:11.555Z,6.27
2019-02-19T08:23:39.225Z,6.25
2019-02-19T08:26:06.877Z,6.26
2019-02-19T08:28:34.537Z,6.37
2019-02-19T08:31:02.213Z,6.43
2019-02-19T08:33:29.878Z,6.51
2019-02-19T08:35:57.533Z,6.74
2019-02-19T08:38:25.227Z,6.90
2019-02-19T08:40:52.918Z,6.96
2019-02-19T08:43:20.576Z,7.19
2019-02-19T08:45:48.238Z,7.28
2019-02-19T08:48:15.894Z,7.28
2019-02-19T08:50:43.575Z,7.34
2019-02-19T08:53:11.238Z,7.65
2019-02-19T08:55:38.899Z,7.81
2019-02-19T08:58:06.551Z,7.95
2019-02-19T09:00:34.237Z,8.12
2019-02-19T09:03:01.899Z,8.23
2019-02-19T09:05:29.552Z,8.32
2019-02-19T09:07:57.214Z,8.56
2019-02-19T09:10:24.879Z,8.67
2019-02-19T09:12:52.557Z,8.64
2019-02-19T09:15:20.226Z,8.78
2019-02-19T09:17:51.873Z,9.12
2019-02-19T09:20:17.338Z,9.36
2019-02-19T09:22:44.994Z,9.59
2019-02-19T09:25:12.658Z,9.75
2019-02-19T09:27:40.325Z,9.86
2019-02-19T09:30:07.993Z,10.06
2019-02-19T09:32:35.657Z,10.43
2019-02-19T09:35:03.327Z,10.66
2019-02-19T09:37:30.991Z,10.92
2019-02-19T09:39:58.672Z,11.23
2019-02-19T09:42:26.410Z,11.52
2019-02-19T09:44:54.074Z,11.72
2019-02-19T09:47:21.747Z,12.17
2019-02-19T09:49:49.437Z,12.27
2019-02-19T09:52:17.081Z,12.24
2019-02-19T09:54:45.151Z,12.25
2019-02-19T09:57:12.809Z,12.32
2019-02-19T09:59:40.469Z,12.11
2019-02-19T10:02:08.121Z,12.50
2019-02-19T10:04:35.781Z,12.64
2019-02-19T10:07:03.551Z,12.79
2019-02-19T10:09:31.235Z,12.99
2019-02-19T10:11:58.963Z,12.99
2019-02-19T10:14:26.623Z,13.09
2019-02-19T10:16:54.395Z,13.14
2019-02-19T10:19:22.383Z,13.31
2019-02-19T10:21:50.106Z,13.38
2019-02-19T10:24:17.811Z,13.31
2019-02-19T10:26:45.578Z,13.19
2019-02-19T10:29:13.228Z,13.33
2019-02-19T10:31:40.945Z,13.47
2019-02-19T10:34:08.651Z,13.42
2019-02-19T10:36:36.310Z,13.43
2019-02-19T10:39:04.998Z,13.12
2019-02-19T10:41:32.663Z,13.33
2019-02-19T10:44:00.426Z,12.95
2019-02-19T10:46:28.091Z,12.79
2019-02-19T10:48:55.745Z,12.59
2019-02-19T10:51:23.401Z,12.37
2019-02-19T10:53:51.075Z,12.38
2019-02-19T10:56:18.736Z,12.56
2019-02-19T10:58:46.400Z,12.43
2019-02-19T11:01:14.069Z,12.45
2019-02-19T11:03:41.733Z,12.46
2019-02-19T11:06:09.385Z,12.42
2019-02-19T11:08:37.037Z,12.49
2019-02-19T11:11:04.701Z,12.43
2019-02-19T11:13:32.354Z,12.38
2019-02-19T11:16:00.015Z,12.37
2019-02-19T11:18:28.744Z,12.46
2019-02-19T11:20:56.722Z,12.47
2019-02-19T11:23:24.385Z,12.47
2019-02-19T11:25:52.048Z,12.30
2019-02-19T11:28:19.705Z,12.41
2019-02-19T11:30:47.397Z,12.42
2019-02-19T11:33:15.041Z,12.57
2019-02-19T11:35:42.711Z,12.74
2019-02-19T11:38:10.375Z,12.71
2019-02-19T11:40:38.042Z,12.66
2019-02-19T11:43:05.703Z,12.59
2019-02-19T11:45:33.357Z,12.51
2019-02-19T11:48:01.010Z,12.40
2019-02-19T11:50:28.743Z,12.29
2019-02-19T11:52:56.930Z,12.03
2019-02-19T11:55:24.602Z,11.81
2019-02-19T11:57:52.270Z,11.73
2019-02-19T12:00:23.994Z,11.74
2019-02-19T12:02:51.644Z,11.63
2019-02-19T12:05:19.310Z,11.54
2019-02-19T12:07:46.978Z,11.46
2019-02-19T12:10:14.633Z,11.34
2019-02-19T12:12:42.297Z,11.17
2019-02-19T12:15:09.950Z,11.16
2019-02-19T12:17:37.622Z,11.07
2019-02-19T12:20:05.288Z,10.97
2019-02-19T12:22:32.940Z,10.94
2019-02-19T12:25:00.614Z,10.94
2019-02-19T12:27:28.274Z,10.84
2019-02-19T12:29:55.944Z,10.77
2019-02-19T12:32:23.600Z,10.64
2019-02-19T12:34:51.268Z,10.61
2019-02-19T12:37:18.928Z,10.52
2019-02-19T12:39:46.598Z,10.48
2019-02-19T12:42:14.264Z,10.47
2019-02-19T12:44:41.934Z,10.42
2019-02-19T12:47:09.610Z,10.38
2019-02-19T12:49:37.320Z,10.35
2019-02-19T12:52:05.023Z,10.29
2019-02-19T12:54:32.686Z,10.25
2019-02-19T12:57:00.360Z,10.18
2019-02-19T12:59:28.094Z,10.15
2019-02-19T13:01:55.762Z,10.05
2019-02-19T13:04:23.455Z,9.96
2019-02-19T13:06:51.174Z,9.93
2019-02-19T13:09:18.843Z,9.86
2019-02-19T13:11:46.501Z,9.71
2019-02-19T13:14:14.158Z,9.63
2019-02-19T13:16:41.828Z,9.59
2019-02-19T13:19:09.493Z,9.49
2019-02-19T13:21:37.136Z,9.47
2019-02-19T13:24:04.789Z,9.48
2019-02-19T13:26:32.474Z,9.38
2019-02-19T13:29:00.170Z,9.34
2019-02-19T13:31:27.851Z,9.37
2019-02-19T13:33:55.506Z,9.34
2019-02-19T13:36:23.170Z,9.26
2019-02-19T13:38:50.827Z,9.29
2019-02-19T13:41:18.514Z,9.20
2019-02-19T13:43:46.180Z,9.23
2019-02-19T13:46:13.859Z,9.18
2019-02-19T13:48:41.506Z,9.18
2019-02-19T13:51:09.170Z,9.18
2019-02-19T13:53:42.672Z,9.15
2019-02-19T13:56:10.323Z,9.13
2019-02-19T13:58:37.983Z,9.13
2019-02-19T14:01:05.636Z,9.08
2019-02-19T14:03:33.305Z,9.04
2019-02-19T14:06:00.982Z,9.08
2019-02-19T14:08:28.639Z,9.01
2019-02-19T14:10:56.285Z,8.89
2019-02-19T14:13:23.946Z,8.80
2019-02-19T14:16:00.099Z,8.73
2019-02-19T14:18:47.134Z,8.68
2019-02-19T14:21:20.049Z,8.60
2019-02-19T14:24:04.909Z,8.58
2019-02-19T14:26:43.737Z,8.50
2019-02-19T14:29:16.727Z,8.33
2019-02-19T14:31:58.809Z,8.24
2019-02-19T14:34:45.521Z,8.22
2019-02-19T14:37:35.215Z,8.17
2019-02-19T14:40:10.506Z,8.03
2019-02-19T14:42:54.478Z,7.94
2019-02-19T14:45:42.057Z,7.93
2019-02-19T14:48:31.606Z,7.97
2019-02-19T14:51:06.915Z,7.93
2019-02-19T14:53:43.601Z,7.97
2019-02-19T14:56:21.090Z,7.98
2019-02-19T14:58:59.415Z,7.91
2019-02-19T15:01:48.043Z,7.94
2019-02-19T15:04:31.185Z,8.09
2019-02-19T15:07:13.521Z,8.07
2019-02-19T15:09:55.597Z,8.11
2019-02-19T15:12:36.574Z,8.13
2019-02-19T15:15:12.539Z,8.14
2019-02-19T15:17:51.766Z,8.14
2019-02-19T15:20:24.341Z,8.13
2019-02-19T15:23:01.516Z,8.10
2019-02-19T15:25:44.044Z,8.04
2019-02-19T15:28:16.852Z,8.00
2019-02-19T15:30:49.826Z,8.05
2019-02-19T15:33:29.235Z,7.93
2019-02-19T15:36:17.991Z,7.92
2019-02-19T15:39:07.878Z,7.89
2019-02-19T15:41:51.820Z,7.97
2019-02-19T15:44:30.354Z,7.95
2019-02-19T15:47:19.969Z,7.92
2019-02-19T15:49:58.958Z,7.81
2019-02-19T15:52:36.849Z,7.80
2019-02-19T15:55:13.324Z,7.72
2019-02-19T15:57:51.637Z,7.83
2019-02-19T16:00:39.386Z,7.74
2019-02-19T16:03:12.121Z,7.71
2019-02-19T16:05:53.838Z,7.65
2019-02-19T16:08:26.707Z,7.52
2019-02-19T16:11:13.403Z,7.35
2019-02-19T16:13:55.573Z,7.32
2019-02-19T16:16:28.725Z,7.34
2019-02-19T16:19:05.599Z,7.13
2019-02-19T16:21:42.573Z,7.25
2019-02-19T16:24:15.523Z,7.18
2019-02-19T16:26:50.512Z,7.17
2019-02-19T16:29:28.092Z,7.00
2019-02-19T16:32:00.954Z,6.94
2019-02-19T16:34:39.733Z,6.77
2019-02-19T16:37:15.459Z,6.82
2019-02-19T16:39:53.161Z,6.69
2019-02-19T16:42:26.157Z,6.66
2019-02-19T16:45:04.357Z,6.70
2019-02-19T16:47:46.154Z,6.51
2019-02-19T16:50:23.638Z,6.40
2019-02-19T16:53:10.328Z,6.37
2019-02-19T16:55:51.947Z,6.33
2019-02-19T16:58:30.046Z,6.25
2019-02-19T17:01:03.745Z,6.29
2019-02-19T17:03:36.945Z,6.21
2019-02-19T17:06:19.358Z,6.32
2019-02-19T17:09:06.953Z,6.41
2019-02-19T17:11:42.953Z,6.19
2019-02-19T17:14:22.382Z,6.03
2019-02-19T17:16:55.372Z,6.16
2019-02-19T17:19:42.077Z,6.05
2019-02-19T17:22:32.813Z,6.07
2019-02-19T17:25:05.746Z,6.13
2019-02-19T17:27:38.723Z,6.10
2019-02-19T17:30:22.794Z,6.53
2019-02-19T17:32:58.551Z,6.36
2019-02-19T17:35:35.954Z,6.23
2019-02-19T17:38:14.898Z,6.38
2019-02-19T17:40:55.550Z,6.17
2019-02-19T17:43:31.184Z,6.08
2019-02-19T17:46:18.890Z,6.27
2019-02-19T17:49:05.594Z,6.30
2019-02-19T17:51:56.153Z,6.26
2019-02-19T17:54:32.315Z,6.17
2019-02-19T17:57:05.161Z,6.22
2019-02-19T17:59:40.717Z,6.18
2019-02-19T18:02:14.018Z,6.19
2019-02-19T18:04:46.911Z,6.03
2019-02-19T18:07:34.641Z,6.07
2019-02-19T18:10:23.476Z,6.17
2019-02-19T18:13:03.137Z,6.23
2019-02-19T18:15:51.794Z,5.99
2019-02-19T18:18:28.771Z,5.83
2019-02-19T18:20:56.427Z,5.62
2019-02-19T18:23:24.231Z,5.65
2019-02-19T18:25:51.879Z,5.77
2019-02-19T18:28:19.540Z,6.06
2019-02-19T18:30:47.219Z,5.86
2019-02-19T18:33:14.940Z,5.93
2019-02-19T18:35:42.606Z,5.78
2019-02-19T18:38:10.243Z,5.69
2019-02-19T18:40:37.910Z,5.71
2019-02-19T18:43:05.646Z,5.65
2019-02-19T18:45:33.298Z,5.73
2019-02-19T18:48:00.984Z,5.70
2019-02-19T18:50:28.659Z,5.63
2019-02-19T18:52:56.309Z,6.00
2019-02-19T18:55:23.974Z,5.91
2019-02-19T18:57:51.634Z,5.93
2019-02-19T19:00:19.300Z,6.07
2019-02-19T19:02:46.973Z,6.27
2019-02-19T19:05:14.637Z,6.29
2019-02-19T19:07:42.299Z,6.31
2019-02-19T19:10:09.966Z,6.48
2019-02-19T19:12:37.620Z,6.50
2019-02-19T19:15:05.277Z,6.43
2019-02-19T19:17:32.932Z,6.49
2019-02-19T19:20:00.594Z,6.53
2019-02-19T19:22:28.244Z,6.52
2019-02-19T19:24:55.902Z,6.60
2019-02-19T19:27:23.559Z,6.62
2019-02-19T19:29:51.225Z,6.85
2019-02-19T19:32:18.869Z,6.74
2019-02-19T19:34:46.524Z,6.78
2019-02-19T19:37:14.201Z,6.83
2019-02-19T19:39:41.933Z,6.84
2019-02-19T19:42:09.595Z,6.82
2019-02-19T19:44:37.250Z,6.89
2019-02-19T19:47:04.910Z,6.89
2019-02-19T19:49:32.577Z,7.01
2019-02-19T19:52:00.426Z,6.91
2019-02-19T19:54:28.161Z,7.10
2019-02-19T19:56:55.837Z,6.91
2019-02-19T19:59:23.568Z,7.01
2019-02-19T20:01:51.223Z,7.09
2019-02-19T20:04:18.882Z,7.05
2019-02-19T20:06:46.541Z,7.06
2019-02-19T20:09:14.246Z,6.91
2019-02-19T20:11:41.904Z,7.06
2019-02-19T20:14:09.570Z,6.93
2019-02-19T20:16:37.243Z,6.97
2019-02-19T20:19:04.893Z,7.17
2019-02-19T20:21:32.561Z,7.09
2019-02-19T20:24:00.210Z,7.29
2019-02-19T20:26:27.871Z,7.30
2019-02-19T20:28:55.536Z,7.19
2019-02-19T20:31:23.197Z,7.07
2019-02-19T20:33:50.842Z,7.13
2019-02-19T20:36:18.517Z,7.19
2019-02-19T20:38:46.182Z,7.21
2019-02-19T20:41:13.841Z,7.20
2019-02-19T20:43:41.496Z,7.12
2019-02-19T20:46:09.164Z,7.16
2019-02-19T20:48:36.822Z,7.25
2019-02-19T20:51:04.478Z,7.16
2019-02-19T20:53:32.135Z,7.18
2019-02-19T20:55:59.794Z,7.20
2019-02-19T20:58:27.441Z,7.18
2019-02-19T21:00:55.103Z,7.07
2019-02-19T21:03:22.780Z,7.03
2019-02-19T21:05:50.506Z,7.10
2019-02-19T21:08:18.262Z,7.02
2019-02-19T21:10:45.934Z,7.19
2019-02-19T21:13:13.590Z,7.16
2019-02-19T21:15:41.243Z,7.03
2019-02-19T21:18:08.891Z,7.07
2019-02-19T21:20:36.555Z,7.23
2019-02-19T21:23:04.227Z,7.17
2019-02-19T21:25:31.887Z,7.23
2019-02-19T21:27:59.541Z,7.34
2019-02-19T21:30:27.186Z,7.25
2019-02-19T21:32:54.859Z,7.35
2019-02-19T21:35:22.520Z,7.31
2019-02-19T21:37:50.189Z,7.14
2019-02-19T21:40:17.850Z,7.16
2019-02-19T21:42:45.522Z,7.20
2019-02-19T21:45:13.189Z,7.30
2019-02-19T21:47:40.934Z,7.26
2019-02-19T21:50:08.579Z,7.30
2019-02-19T21:52:36.230Z,7.27
2019-02-19T21:55:04.611Z,7.44
2019-02-19T21:57:32.446Z,7.31
2019-02-19T22:00:00.172Z,7.33
2019-02-19T22:02:28.046Z,7.32
2019-02-19T22:04:55.698Z,7.24
2019-02-19T22:07:23.354Z,7.19
2019-02-19T22:09:51.013Z,7.10
2019-02-19T22:12:18.669Z,7.20
2019-02-19T22:14:46.329Z,7.22
2019-02-19T22:17:13.992Z,7.18
2019-02-19T22:19:41.642Z,7.12
2019-02-19T22:22:13.904Z,7.04
2019-02-19T22:24:41.565Z,7.05
2019-02-19T22:27:09.221Z,7.09
2019-02-19T22:29:36.876Z,7.07
2019-02-19T22:32:05.010Z,7.01
2019-02-19T22:34:32.669Z,7.08
2019-02-19T22:37:00.340Z,6.98
2019-02-19T22:39:27.988Z,7.01
2019-02-19T22:41:55.648Z,7.09
2019-02-19T22:44:23.306Z,7.00
2019-02-19T22:46:50.965Z,7.13
2019-02-19T22:49:18.615Z,7.13
2019-02-19T22:51:46.275Z,7.03
2019-02-19T22:54:21.117Z,7.04
2019-02-19T22:56:48.777Z,7.09
2019-02-19T22:59:16.432Z,7.10
2019-02-19T23:01:48.061Z,6.86
2019-02-19T23:04:15.710Z,6.87
2019-02-19T23:06:43.365Z,6.86
2019-02-19T23:09:11.031Z,6.79
2019-02-19T23:11:38.745Z,6.77
2019-02-19T23:14:06.434Z,6.70
2019-02-19T23:16:34.096Z,6.64
2019-02-19T23:19:01.765Z,6.70
2019-02-19T23:21:29.417Z,6.57
2019-02-19T23:23:57.066Z,6.40
2019-02-19T23:26:24.730Z,6.43
2019-02-19T23:28:52.474Z,6.30
2019-02-19T23:31:20.135Z,6.36
2019-02-19T23:33:47.790Z,6.44
2019-02-19T23:36:20.951Z,6.52
2019-02-19T23:38:48.604Z,6.45
2019-02-19T23:41:16.344Z,6.37
2019-02-19T23:43:44.002Z,6.31
2019-02-19T23:46:11.657Z,6.25
2019-02-19T23:48:39.316Z,6.24
2019-02-19T23:51:06.986Z,6.34
2019-02-19T23:53:34.634Z,6.40
2019-02-19T23:56:02.298Z,6.33
2019-02-19T23:58:29.954Z,6.23
